sensor_id;sensor_type;location;lat;lon;timestamp;P1;durP1;ratioP1;P2;durP2;ratioP2
71150;SDS011;59071;42.138;24.768;2024-01-16T00:01:37;64.20;;;28.80;;
71150;SDS011;59071;42.138;24.768;2024-01-16T00:04:02;70.03;;;30.05;;
71150;SDS011;59071;42.138;24.768;2024-01-16T00:06:28;63.88;;;28.30;;
71150;SDS011;59071;42.138;24.768;2024-01-16T00:08:53;60.33;;;28.67;;
71150;SDS011;59071;42.138;24.768;2024-01-16T00:11:19;69.53;;;29.60;;
71150;SDS011;59071;42.138;24.768;2024-01-16T00:13:44;66.18;;;29.23;;
71150;SDS011;59071;42.138;24.768;2024-01-16T00:16:09;61.60;;;27.63;;
71150;SDS011;59071;42.138;24.768;2024-01-16T00:18:35;64.43;;;28.27;;
71150;SDS011;59071;42.138;24.768;2024-01-16T00:21:00;57.97;;;26.90;;
71150;SDS011;59071;42.138;24.768;2024-01-16T00:23:27;62.08;;;27.77;;
71150;SDS011;59071;42.138;24.768;2024-01-16T00:25:53;57.33;;;27.05;;
71150;SDS011;59071;42.138;24.768;2024-01-16T00:28:18;53.08;;;27.13;;
71150;SDS011;59071;42.138;24.768;2024-01-16T00:30:44;61.50;;;26.67;;
71150;SDS011;59071;42.138;24.768;2024-01-16T00:33:10;65.50;;;28.42;;
71150;SDS011;59071;42.138;24.768;2024-01-16T00:35:37;57.33;;;26.85;;
71150;SDS011;59071;42.138;24.768;2024-01-16T00:38:02;64.25;;;26.88;;
71150;SDS011;59071;42.138;24.768;2024-01-16T00:40:28;59.55;;;27.17;;
71150;SDS011;59071;42.138;24.768;2024-01-16T00:42:53;57.83;;;25.92;;
71150;SDS011;59071;42.138;24.768;2024-01-16T00:45:19;57.70;;;27.35;;
71150;SDS011;59071;42.138;24.768;2024-01-16T00:47:44;61.47;;;27.77;;
71150;SDS011;59071;42.138;24.768;2024-01-16T00:50:09;58.40;;;26.75;;
71150;SDS011;59071;42.138;24.768;2024-01-16T00:52:35;61.35;;;26.55;;
71150;SDS011;59071;42.138;24.768;2024-01-16T00:55:01;56.65;;;26.77;;
71150;SDS011;59071;42.138;24.768;2024-01-16T00:57:26;63.10;;;26.90;;
71150;SDS011;59071;42.138;24.768;2024-01-16T00:59:51;66.03;;;27.38;;
71150;SDS011;59071;42.138;24.768;2024-01-16T01:02:17;55.88;;;26.63;;
71150;SDS011;59071;42.138;24.768;2024-01-16T01:04:42;58.30;;;26.65;;
71150;SDS011;59071;42.138;24.768;2024-01-16T01:07:08;57.28;;;26.83;;
71150;SDS011;59071;42.138;24.768;2024-01-16T01:09:33;58.08;;;27.65;;
71150;SDS011;59071;42.138;24.768;2024-01-16T01:11:58;61.10;;;28.58;;
71150;SDS011;59071;42.138;24.768;2024-01-16T01:14:24;63.72;;;26.55;;
71150;SDS011;59071;42.138;24.768;2024-01-16T01:16:51;62.85;;;27.70;;
71150;SDS011;59071;42.138;24.768;2024-01-16T01:19:17;57.45;;;28.05;;
71150;SDS011;59071;42.138;24.768;2024-01-16T01:21:42;62.75;;;28.20;;
71150;SDS011;59071;42.138;24.768;2024-01-16T01:24:08;61.28;;;27.23;;
71150;SDS011;59071;42.138;24.768;2024-01-16T01:26:34;59.78;;;27.08;;
71150;SDS011;59071;42.138;24.768;2024-01-16T01:28:59;59.20;;;28.13;;
71150;SDS011;59071;42.138;24.768;2024-01-16T01:31:25;61.95;;;28.00;;
71150;SDS011;59071;42.138;24.768;2024-01-16T01:33:50;65.53;;;28.83;;
71150;SDS011;59071;42.138;24.768;2024-01-16T01:36:15;55.22;;;25.30;;
71150;SDS011;59071;42.138;24.768;2024-01-16T01:38:41;57.95;;;27.55;;
71150;SDS011;59071;42.138;24.768;2024-01-16T01:41:06;64.13;;;28.30;;
71150;SDS011;59071;42.138;24.768;2024-01-16T01:43:31;63.00;;;27.48;;
71150;SDS011;59071;42.138;24.768;2024-01-16T01:46:10;56.40;;;26.65;;
71150;SDS011;59071;42.138;24.768;2024-01-16T01:48:42;60.17;;;26.40;;
71150;SDS011;59071;42.138;24.768;2024-01-16T01:51:12;59.30;;;26.10;;
71150;SDS011;59071;42.138;24.768;2024-01-16T01:53:38;63.22;;;27.98;;
71150;SDS011;59071;42.138;24.768;2024-01-16T01:56:04;61.15;;;26.88;;
71150;SDS011;59071;42.138;24.768;2024-01-16T01:58:33;57.43;;;25.60;;
71150;SDS011;59071;42.138;24.768;2024-01-16T02:01:00;66.47;;;27.60;;
71150;SDS011;59071;42.138;24.768;2024-01-16T02:03:27;63.67;;;26.65;;
71150;SDS011;59071;42.138;24.768;2024-01-16T02:05:55;65.57;;;28.20;;
71150;SDS011;59071;42.138;24.768;2024-01-16T02:08:20;73.43;;;28.98;;
71150;SDS011;59071;42.138;24.768;2024-01-16T02:10:47;73.22;;;30.10;;
71150;SDS011;59071;42.138;24.768;2024-01-16T02:13:15;71.80;;;28.52;;
71150;SDS011;59071;42.138;24.768;2024-01-16T02:15:40;70.00;;;28.98;;
71150;SDS011;59071;42.138;24.768;2024-01-16T02:18:06;68.55;;;28.48;;
71150;SDS011;59071;42.138;24.768;2024-01-16T02:20:32;69.28;;;26.15;;
71150;SDS011;59071;42.138;24.768;2024-01-16T02:22:57;61.83;;;26.02;;
71150;SDS011;59071;42.138;24.768;2024-01-16T02:25:28;56.25;;;24.90;;
71150;SDS011;59071;42.138;24.768;2024-01-16T02:27:54;59.15;;;26.90;;
71150;SDS011;59071;42.138;24.768;2024-01-16T02:30:19;57.83;;;26.25;;
71150;SDS011;59071;42.138;24.768;2024-01-16T02:32:45;56.63;;;26.50;;
71150;SDS011;59071;42.138;24.768;2024-01-16T02:35:10;68.95;;;27.77;;
71150;SDS011;59071;42.138;24.768;2024-01-16T02:37:35;58.35;;;26.00;;
71150;SDS011;59071;42.138;24.768;2024-01-16T02:40:01;59.38;;;25.50;;
71150;SDS011;59071;42.138;24.768;2024-01-16T02:42:31;57.50;;;25.92;;
71150;SDS011;59071;42.138;24.768;2024-01-16T02:44:59;58.53;;;25.10;;
71150;SDS011;59071;42.138;24.768;2024-01-16T02:47:24;48.00;;;23.05;;
71150;SDS011;59071;42.138;24.768;2024-01-16T02:49:49;50.30;;;24.05;;
71150;SDS011;59071;42.138;24.768;2024-01-16T02:52:15;52.60;;;25.33;;
71150;SDS011;59071;42.138;24.768;2024-01-16T02:54:41;61.05;;;26.77;;
71150;SDS011;59071;42.138;24.768;2024-01-16T02:57:06;65.82;;;26.73;;
71150;SDS011;59071;42.138;24.768;2024-01-16T02:59:31;63.97;;;27.55;;
71150;SDS011;59071;42.138;24.768;2024-01-16T03:01:57;59.17;;;26.50;;
71150;SDS011;59071;42.138;24.768;2024-01-16T03:04:22;57.80;;;26.50;;
71150;SDS011;59071;42.138;24.768;2024-01-16T03:06:48;56.60;;;25.90;;
71150;SDS011;59071;42.138;24.768;2024-01-16T03:09:14;61.03;;;26.65;;
71150;SDS011;59071;42.138;24.768;2024-01-16T03:11:39;62.70;;;27.50;;
71150;SDS011;59071;42.138;24.768;2024-01-16T03:14:05;61.25;;;27.90;;
71150;SDS011;59071;42.138;24.768;2024-01-16T03:16:31;63.75;;;27.52;;
71150;SDS011;59071;42.138;24.768;2024-01-16T03:18:56;66.22;;;27.77;;
71150;SDS011;59071;42.138;24.768;2024-01-16T03:21:22;54.33;;;25.65;;
71150;SDS011;59071;42.138;24.768;2024-01-16T03:23:48;56.75;;;25.42;;
71150;SDS011;59071;42.138;24.768;2024-01-16T03:26:13;59.58;;;28.38;;
71150;SDS011;59071;42.138;24.768;2024-01-16T03:28:40;56.35;;;26.70;;
71150;SDS011;59071;42.138;24.768;2024-01-16T03:31:06;60.83;;;27.35;;
71150;SDS011;59071;42.138;24.768;2024-01-16T03:33:31;53.92;;;26.30;;
71150;SDS011;59071;42.138;24.768;2024-01-16T03:35:56;58.25;;;26.27;;
71150;SDS011;59071;42.138;24.768;2024-01-16T03:38:22;54.55;;;25.02;;
71150;SDS011;59071;42.138;24.768;2024-01-16T03:40:47;56.15;;;25.77;;
71150;SDS011;59071;42.138;24.768;2024-01-16T03:43:12;61.30;;;27.60;;
71150;SDS011;59071;42.138;24.768;2024-01-16T03:45:38;56.95;;;25.48;;
71150;SDS011;59071;42.138;24.768;2024-01-16T03:48:04;55.83;;;25.95;;
71150;SDS011;59071;42.138;24.768;2024-01-16T03:50:29;58.78;;;26.17;;
71150;SDS011;59071;42.138;24.768;2024-01-16T03:52:55;58.63;;;27.70;;
71150;SDS011;59071;42.138;24.768;2024-01-16T03:55:20;60.85;;;27.15;;
71150;SDS011;59071;42.138;24.768;2024-01-16T03:57:46;64.43;;;26.13;;
71150;SDS011;59071;42.138;24.768;2024-01-16T04:00:11;55.78;;;25.77;;
71150;SDS011;59071;42.138;24.768;2024-01-16T04:02:37;60.15;;;26.70;;
71150;SDS011;59071;42.138;24.768;2024-01-16T04:05:03;56.35;;;26.05;;
71150;SDS011;59071;42.138;24.768;2024-01-16T04:07:29;62.38;;;28.00;;
71150;SDS011;59071;42.138;24.768;2024-01-16T04:09:55;62.33;;;28.02;;
71150;SDS011;59071;42.138;24.768;2024-01-16T04:12:20;68.53;;;29.30;;
71150;SDS011;59071;42.138;24.768;2024-01-16T04:14:46;59.92;;;27.67;;
71150;SDS011;59071;42.138;24.768;2024-01-16T04:17:12;62.47;;;27.25;;
71150;SDS011;59071;42.138;24.768;2024-01-16T04:19:37;65.47;;;28.27;;
71150;SDS011;59071;42.138;24.768;2024-01-16T04:22:02;66.70;;;27.80;;
71150;SDS011;59071;42.138;24.768;2024-01-16T04:24:29;69.50;;;29.05;;
71150;SDS011;59071;42.138;24.768;2024-01-16T04:26:55;68.10;;;29.48;;
71150;SDS011;59071;42.138;24.768;2024-01-16T04:29:20;65.55;;;29.10;;
71150;SDS011;59071;42.138;24.768;2024-01-16T04:31:45;67.65;;;29.63;;
71150;SDS011;59071;42.138;24.768;2024-01-16T04:34:11;65.20;;;29.45;;
71150;SDS011;59071;42.138;24.768;2024-01-16T04:36:36;61.20;;;28.15;;
71150;SDS011;59071;42.138;24.768;2024-01-16T04:39:01;64.63;;;28.80;;
71150;SDS011;59071;42.138;24.768;2024-01-16T04:41:28;62.67;;;29.90;;
71150;SDS011;59071;42.138;24.768;2024-01-16T04:43:53;65.60;;;29.08;;
71150;SDS011;59071;42.138;24.768;2024-01-16T04:46:19;60.10;;;27.98;;
71150;SDS011;59071;42.138;24.768;2024-01-16T04:48:44;62.75;;;27.70;;
71150;SDS011;59071;42.138;24.768;2024-01-16T04:51:09;65.28;;;27.83;;
71150;SDS011;59071;42.138;24.768;2024-01-16T04:53:35;66.18;;;29.17;;
71150;SDS011;59071;42.138;24.768;2024-01-16T04:56:01;67.50;;;28.33;;
71150;SDS011;59071;42.138;24.768;2024-01-16T04:58:26;62.50;;;29.92;;
71150;SDS011;59071;42.138;24.768;2024-01-16T05:00:52;62.83;;;28.48;;
71150;SDS011;59071;42.138;24.768;2024-01-16T05:03:17;67.70;;;30.63;;
71150;SDS011;59071;42.138;24.768;2024-01-16T05:05:42;61.92;;;29.30;;
71150;SDS011;59071;42.138;24.768;2024-01-16T05:08:08;63.33;;;26.40;;
71150;SDS011;59071;42.138;24.768;2024-01-16T05:10:33;54.63;;;25.73;;
71150;SDS011;59071;42.138;24.768;2024-01-16T05:12:59;57.28;;;27.00;;
71150;SDS011;59071;42.138;24.768;2024-01-16T05:15:24;51.17;;;23.63;;
71150;SDS011;59071;42.138;24.768;2024-01-16T05:17:49;51.03;;;24.85;;
71150;SDS011;59071;42.138;24.768;2024-01-16T05:20:15;55.17;;;25.85;;
71150;SDS011;59071;42.138;24.768;2024-01-16T05:22:40;54.35;;;24.83;;
71150;SDS011;59071;42.138;24.768;2024-01-16T05:25:06;46.30;;;22.73;;
71150;SDS011;59071;42.138;24.768;2024-01-16T05:27:32;52.70;;;24.23;;
71150;SDS011;59071;42.138;24.768;2024-01-16T05:29:58;51.80;;;23.73;;
71150;SDS011;59071;42.138;24.768;2024-01-16T05:32:23;50.33;;;21.13;;
71150;SDS011;59071;42.138;24.768;2024-01-16T05:34:49;37.20;;;18.65;;
71150;SDS011;59071;42.138;24.768;2024-01-16T05:37:15;44.42;;;20.38;;
71150;SDS011;59071;42.138;24.768;2024-01-16T05:39:40;40.03;;;18.45;;
71150;SDS011;59071;42.138;24.768;2024-01-16T05:42:06;33.92;;;17.45;;
71150;SDS011;59071;42.138;24.768;2024-01-16T05:44:31;38.28;;;17.65;;
71150;SDS011;59071;42.138;24.768;2024-01-16T05:46:57;33.33;;;16.70;;
71150;SDS011;59071;42.138;24.768;2024-01-16T05:49:22;30.10;;;15.02;;
71150;SDS011;59071;42.138;24.768;2024-01-16T05:51:47;33.70;;;16.60;;
71150;SDS011;59071;42.138;24.768;2024-01-16T05:54:13;33.45;;;15.38;;
71150;SDS011;59071;42.138;24.768;2024-01-16T05:56:38;31.25;;;16.33;;
71150;SDS011;59071;42.138;24.768;2024-01-16T05:59:03;35.22;;;17.25;;
71150;SDS011;59071;42.138;24.768;2024-01-16T06:01:29;32.65;;;16.20;;
71150;SDS011;59071;42.138;24.768;2024-01-16T06:03:55;36.97;;;17.83;;
71150;SDS011;59071;42.138;24.768;2024-01-16T06:06:20;37.40;;;17.73;;
71150;SDS011;59071;42.138;24.768;2024-01-16T06:08:45;37.33;;;17.45;;
71150;SDS011;59071;42.138;24.768;2024-01-16T06:11:11;37.42;;;17.75;;
71150;SDS011;59071;42.138;24.768;2024-01-16T06:13:37;37.80;;;17.77;;
71150;SDS011;59071;42.138;24.768;2024-01-16T06:16:03;38.13;;;17.48;;
71150;SDS011;59071;42.138;24.768;2024-01-16T06:18:30;34.70;;;17.02;;
71150;SDS011;59071;42.138;24.768;2024-01-16T06:20:56;37.28;;;16.67;;
71150;SDS011;59071;42.138;24.768;2024-01-16T06:23:21;30.33;;;14.23;;
71150;SDS011;59071;42.138;24.768;2024-01-16T06:25:46;28.83;;;13.10;;
71150;SDS011;59071;42.138;24.768;2024-01-16T06:28:12;22.85;;;11.57;;
71150;SDS011;59071;42.138;24.768;2024-01-16T06:30:37;22.95;;;10.20;;
71150;SDS011;59071;42.138;24.768;2024-01-16T06:33:02;15.50;;;8.20;;
71150;SDS011;59071;42.138;24.768;2024-01-16T06:35:28;13.68;;;7.78;;
71150;SDS011;59071;42.138;24.768;2024-01-16T06:37:53;15.15;;;8.20;;
71150;SDS011;59071;42.138;24.768;2024-01-16T06:40:19;12.65;;;7.50;;
71150;SDS011;59071;42.138;24.768;2024-01-16T06:42:44;13.48;;;7.10;;
71150;SDS011;59071;42.138;24.768;2024-01-16T06:45:10;14.10;;;7.05;;
71150;SDS011;59071;42.138;24.768;2024-01-16T06:47:37;12.15;;;6.72;;
71150;SDS011;59071;42.138;24.768;2024-01-16T06:50:03;11.07;;;6.22;;
71150;SDS011;59071;42.138;24.768;2024-01-16T06:52:28;9.77;;;6.03;;
71150;SDS011;59071;42.138;24.768;2024-01-16T06:54:54;10.88;;;5.57;;
71150;SDS011;59071;42.138;24.768;2024-01-16T06:57:19;11.13;;;6.07;;
71150;SDS011;59071;42.138;24.768;2024-01-16T06:59:45;12.77;;;5.88;;
71150;SDS011;59071;42.138;24.768;2024-01-16T07:02:11;9.82;;;5.45;;
71150;SDS011;59071;42.138;24.768;2024-01-16T07:04:36;9.30;;;5.10;;
71150;SDS011;59071;42.138;24.768;2024-01-16T07:07:02;8.82;;;5.15;;
71150;SDS011;59071;42.138;24.768;2024-01-16T07:09:28;8.70;;;4.95;;
71150;SDS011;59071;42.138;24.768;2024-01-16T07:11:53;7.20;;;4.75;;
71150;SDS011;59071;42.138;24.768;2024-01-16T07:14:19;9.07;;;4.57;;
71150;SDS011;59071;42.138;24.768;2024-01-16T07:16:44;7.63;;;4.45;;
71150;SDS011;59071;42.138;24.768;2024-01-16T07:19:10;7.25;;;4.78;;
71150;SDS011;59071;42.138;24.768;2024-01-16T07:21:37;8.32;;;4.57;;
71150;SDS011;59071;42.138;24.768;2024-01-16T07:24:02;8.25;;;4.22;;
71150;SDS011;59071;42.138;24.768;2024-01-16T07:26:28;7.30;;;4.72;;
71150;SDS011;59071;42.138;24.768;2024-01-16T07:28:54;9.23;;;5.00;;
71150;SDS011;59071;42.138;24.768;2024-01-16T07:31:20;8.80;;;5.25;;
71150;SDS011;59071;42.138;24.768;2024-01-16T07:33:45;8.13;;;5.10;;
71150;SDS011;59071;42.138;24.768;2024-01-16T07:36:10;7.43;;;4.57;;
71150;SDS011;59071;42.138;24.768;2024-01-16T07:38:37;10.25;;;4.90;;
71150;SDS011;59071;42.138;24.768;2024-01-16T07:41:02;8.02;;;4.35;;
71150;SDS011;59071;42.138;24.768;2024-01-16T07:43:28;7.30;;;4.10;;
71150;SDS011;59071;42.138;24.768;2024-01-16T07:45:57;7.20;;;4.00;;
71150;SDS011;59071;42.138;24.768;2024-01-16T07:48:22;7.90;;;4.15;;
71150;SDS011;59071;42.138;24.768;2024-01-16T07:50:48;7.25;;;3.90;;
71150;SDS011;59071;42.138;24.768;2024-01-16T07:53:13;7.60;;;4.43;;
71150;SDS011;59071;42.138;24.768;2024-01-16T07:55:40;7.15;;;4.30;;
71150;SDS011;59071;42.138;24.768;2024-01-16T07:58:05;7.60;;;4.78;;
71150;SDS011;59071;42.138;24.768;2024-01-16T08:00:31;7.05;;;4.07;;
71150;SDS011;59071;42.138;24.768;2024-01-16T08:02:56;7.10;;;4.35;;
71150;SDS011;59071;42.138;24.768;2024-01-16T08:05:22;8.20;;;4.15;;
71150;SDS011;59071;42.138;24.768;2024-01-16T08:07:50;5.78;;;3.80;;
71150;SDS011;59071;42.138;24.768;2024-01-16T08:10:16;8.70;;;4.05;;
71150;SDS011;59071;42.138;24.768;2024-01-16T08:12:41;5.65;;;3.42;;
71150;SDS011;59071;42.138;24.768;2024-01-16T08:15:06;9.45;;;3.97;;
71150;SDS011;59071;42.138;24.768;2024-01-16T08:17:35;9.70;;;4.18;;
71150;SDS011;59071;42.138;24.768;2024-01-16T08:20:00;5.28;;;3.92;;
71150;SDS011;59071;42.138;24.768;2024-01-16T08:22:26;7.03;;;3.75;;
71150;SDS011;59071;42.138;24.768;2024-01-16T08:24:51;12.82;;;4.03;;
71150;SDS011;59071;42.138;24.768;2024-01-16T08:27:17;8.30;;;4.15;;
71150;SDS011;59071;42.138;24.768;2024-01-16T08:29:42;8.02;;;3.47;;
71150;SDS011;59071;42.138;24.768;2024-01-16T08:32:07;11.00;;;3.97;;
71150;SDS011;59071;42.138;24.768;2024-01-16T08:34:33;7.18;;;3.35;;
71150;SDS011;59071;42.138;24.768;2024-01-16T08:36:58;8.35;;;4.00;;
71150;SDS011;59071;42.138;24.768;2024-01-16T08:39:24;6.43;;;3.45;;
71150;SDS011;59071;42.138;24.768;2024-01-16T08:41:50;9.98;;;3.78;;
71150;SDS011;59071;42.138;24.768;2024-01-16T08:44:15;11.65;;;3.40;;
71150;SDS011;59071;42.138;24.768;2024-01-16T08:46:41;4.43;;;2.90;;
71150;SDS011;59071;42.138;24.768;2024-01-16T08:49:06;4.63;;;3.00;;
71150;SDS011;59071;42.138;24.768;2024-01-16T08:51:31;9.70;;;3.20;;
71150;SDS011;59071;42.138;24.768;2024-01-16T08:53:57;9.77;;;3.15;;
71150;SDS011;59071;42.138;24.768;2024-01-16T08:56:22;4.75;;;3.40;;
71150;SDS011;59071;42.138;24.768;2024-01-16T08:58:47;5.65;;;3.20;;
71150;SDS011;59071;42.138;24.768;2024-01-16T09:01:13;7.22;;;3.70;;
71150;SDS011;59071;42.138;24.768;2024-01-16T09:03:38;5.75;;;3.35;;
71150;SDS011;59071;42.138;24.768;2024-01-16T09:06:03;5.53;;;3.30;;
71150;SDS011;59071;42.138;24.768;2024-01-16T09:08:29;9.05;;;3.45;;
71150;SDS011;59071;42.138;24.768;2024-01-16T09:10:55;4.20;;;2.90;;
71150;SDS011;59071;42.138;24.768;2024-01-16T09:13:21;4.72;;;3.30;;
71150;SDS011;59071;42.138;24.768;2024-01-16T09:15:48;9.63;;;3.25;;
71150;SDS011;59071;42.138;24.768;2024-01-16T09:18:14;8.88;;;4.03;;
71150;SDS011;59071;42.138;24.768;2024-01-16T09:20:43;10.07;;;3.65;;
71150;SDS011;59071;42.138;24.768;2024-01-16T09:23:08;5.53;;;3.00;;
71150;SDS011;59071;42.138;24.768;2024-01-16T09:25:34;6.50;;;4.53;;
71150;SDS011;59071;42.138;24.768;2024-01-16T09:28:00;5.82;;;2.83;;
71150;SDS011;59071;42.138;24.768;2024-01-16T09:30:26;3.75;;;2.40;;
71150;SDS011;59071;42.138;24.768;2024-01-16T09:32:52;5.97;;;2.65;;
71150;SDS011;59071;42.138;24.768;2024-01-16T09:35:17;3.42;;;2.20;;
71150;SDS011;59071;42.138;24.768;2024-01-16T09:37:42;6.00;;;2.88;;
71150;SDS011;59071;42.138;24.768;2024-01-16T09:40:08;7.35;;;2.70;;
71150;SDS011;59071;42.138;24.768;2024-01-16T09:42:33;5.60;;;2.35;;
71150;SDS011;59071;42.138;24.768;2024-01-16T09:45:02;7.05;;;2.90;;
71150;SDS011;59071;42.138;24.768;2024-01-16T09:47:31;4.13;;;2.10;;
71150;SDS011;59071;42.138;24.768;2024-01-16T09:50:01;8.30;;;3.72;;
71150;SDS011;59071;42.138;24.768;2024-01-16T09:52:28;6.85;;;2.45;;
71150;SDS011;59071;42.138;24.768;2024-01-16T09:54:54;8.82;;;2.60;;
71150;SDS011;59071;42.138;24.768;2024-01-16T09:57:20;5.82;;;3.58;;
71150;SDS011;59071;42.138;24.768;2024-01-16T09:59:48;4.32;;;2.67;;
71150;SDS011;59071;42.138;24.768;2024-01-16T10:02:14;4.80;;;2.40;;
71150;SDS011;59071;42.138;24.768;2024-01-16T10:04:42;3.53;;;2.25;;
71150;SDS011;59071;42.138;24.768;2024-01-16T10:07:07;7.20;;;2.47;;
71150;SDS011;59071;42.138;24.768;2024-01-16T10:09:35;3.28;;;2.08;;
71150;SDS011;59071;42.138;24.768;2024-01-16T10:12:01;4.45;;;2.08;;
71150;SDS011;59071;42.138;24.768;2024-01-16T10:14:28;6.03;;;2.10;;
71150;SDS011;59071;42.138;24.768;2024-01-16T10:16:56;6.07;;;2.10;;
71150;SDS011;59071;42.138;24.768;2024-01-16T10:19:34;8.65;;;2.20;;
71150;SDS011;59071;42.138;24.768;2024-01-16T10:22:03;6.72;;;2.35;;
71150;SDS011;59071;42.138;24.768;2024-01-16T10:24:29;3.50;;;2.50;;
71150;SDS011;59071;42.138;24.768;2024-01-16T10:26:58;5.65;;;2.35;;
71150;SDS011;59071;42.138;24.768;2024-01-16T10:29:28;2.85;;;1.92;;
71150;SDS011;59071;42.138;24.768;2024-01-16T10:31:57;4.40;;;2.20;;
71150;SDS011;59071;42.138;24.768;2024-01-16T10:34:23;4.60;;;2.13;;
71150;SDS011;59071;42.138;24.768;2024-01-16T10:36:51;4.20;;;2.17;;
71150;SDS011;59071;42.138;24.768;2024-01-16T10:39:17;5.03;;;2.20;;
71150;SDS011;59071;42.138;24.768;2024-01-16T10:44:52;10.32;;;2.40;;
71150;SDS011;59071;42.138;24.768;2024-01-16T10:47:20;3.45;;;2.10;;
71150;SDS011;59071;42.138;24.768;2024-01-16T10:49:47;5.35;;;2.10;;
71150;SDS011;59071;42.138;24.768;2024-01-16T10:52:12;5.55;;;2.38;;
71150;SDS011;59071;42.138;24.768;2024-01-16T10:54:39;7.18;;;2.30;;
71150;SDS011;59071;42.138;24.768;2024-01-16T10:57:06;6.63;;;2.63;;
71150;SDS011;59071;42.138;24.768;2024-01-16T11:00:15;3.05;;;1.98;;
71150;SDS011;59071;42.138;24.768;2024-01-16T11:02:24;2.45;;;1.90;;
71150;SDS011;59071;42.138;24.768;2024-01-16T11:04:57;2.83;;;2.03;;
71150;SDS011;59071;42.138;24.768;2024-01-16T11:07:24;8.90;;;2.25;;
71150;SDS011;59071;42.138;24.768;2024-01-16T11:09:51;4.18;;;1.90;;
71150;SDS011;59071;42.138;24.768;2024-01-16T11:12:17;4.53;;;2.20;;
71150;SDS011;59071;42.138;24.768;2024-01-16T11:14:47;6.68;;;2.10;;
71150;SDS011;59071;42.138;24.768;2024-01-16T11:19:44;3.85;;;1.80;;
71150;SDS011;59071;42.138;24.768;2024-01-16T11:22:12;1.98;;;1.50;;
71150;SDS011;59071;42.138;24.768;2024-01-16T11:24:38;6.05;;;1.92;;
71150;SDS011;59071;42.138;24.768;2024-01-16T11:27:03;2.72;;;1.70;;
71150;SDS011;59071;42.138;24.768;2024-01-16T11:31:55;4.88;;;2.08;;
71150;SDS011;59071;42.138;24.768;2024-01-16T11:37:06;11.50;;;2.03;;
71150;SDS011;59071;42.138;24.768;2024-01-16T11:39:33;3.53;;;1.63;;
71150;SDS011;59071;42.138;24.768;2024-01-16T11:41:59;3.72;;;1.88;;
71150;SDS011;59071;42.138;24.768;2024-01-16T11:47:04;3.08;;;1.70;;
71150;SDS011;59071;42.138;24.768;2024-01-16T11:49:29;3.05;;;2.00;;
71150;SDS011;59071;42.138;24.768;2024-01-16T11:51:58;2.42;;;1.63;;
71150;SDS011;59071;42.138;24.768;2024-01-16T11:54:24;3.65;;;1.88;;
71150;SDS011;59071;42.138;24.768;2024-01-16T12:02:17;4.88;;;1.63;;
71150;SDS011;59071;42.138;24.768;2024-01-16T12:04:51;3.38;;;2.08;;
71150;SDS011;59071;42.138;24.768;2024-01-16T12:07:19;7.72;;;2.00;;
71150;SDS011;59071;42.138;24.768;2024-01-16T12:09:44;3.38;;;1.90;;
71150;SDS011;59071;42.138;24.768;2024-01-16T12:12:09;4.13;;;1.85;;
71150;SDS011;59071;42.138;24.768;2024-01-16T12:14:35;3.60;;;2.15;;
71150;SDS011;59071;42.138;24.768;2024-01-16T12:17:13;5.50;;;2.80;;
71150;SDS011;59071;42.138;24.768;2024-01-16T12:19:39;2.97;;;1.50;;
71150;SDS011;59071;42.138;24.768;2024-01-16T12:22:10;4.70;;;1.70;;
71150;SDS011;59071;42.138;24.768;2024-01-16T12:24:38;7.63;;;1.48;;
71150;SDS011;59071;42.138;24.768;2024-01-16T12:27:04;8.57;;;3.60;;
71150;SDS011;59071;42.138;24.768;2024-01-16T12:29:30;3.42;;;2.40;;
71150;SDS011;59071;42.138;24.768;2024-01-16T12:34:52;3.05;;;1.83;;
71150;SDS011;59071;42.138;24.768;2024-01-16T12:37:18;4.80;;;1.80;;
71150;SDS011;59071;42.138;24.768;2024-01-16T12:39:44;4.00;;;1.80;;
71150;SDS011;59071;42.138;24.768;2024-01-16T12:42:10;3.67;;;1.80;;
71150;SDS011;59071;42.138;24.768;2024-01-16T12:44:36;4.70;;;1.90;;
71150;SDS011;59071;42.138;24.768;2024-01-16T12:47:02;4.60;;;1.75;;
71150;SDS011;59071;42.138;24.768;2024-01-16T12:49:28;5.05;;;1.48;;
71150;SDS011;59071;42.138;24.768;2024-01-16T12:54:45;18.55;;;5.50;;
71150;SDS011;59071;42.138;24.768;2024-01-16T12:57:16;2.10;;;1.38;;
71150;SDS011;59071;42.138;24.768;2024-01-16T12:59:42;2.95;;;1.90;;
71150;SDS011;59071;42.138;24.768;2024-01-16T13:02:07;6.97;;;2.15;;
71150;SDS011;59071;42.138;24.768;2024-01-16T13:04:33;5.38;;;2.17;;
71150;SDS011;59071;42.138;24.768;2024-01-16T13:07:02;3.72;;;2.45;;
71150;SDS011;59071;42.138;24.768;2024-01-16T13:11:54;2.80;;;1.75;;
71150;SDS011;59071;42.138;24.768;2024-01-16T13:14:20;7.10;;;1.90;;
71150;SDS011;59071;42.138;24.768;2024-01-16T13:16:46;4.50;;;1.75;;
71150;SDS011;59071;42.138;24.768;2024-01-16T13:19:21;6.55;;;1.85;;
71150;SDS011;59071;42.138;24.768;2024-01-16T13:21:47;2.60;;;1.70;;
71150;SDS011;59071;42.138;24.768;2024-01-16T13:24:13;2.90;;;1.90;;
71150;SDS011;59071;42.138;24.768;2024-01-16T13:26:39;2.03;;;1.52;;
71150;SDS011;59071;42.138;24.768;2024-01-16T13:29:05;3.47;;;1.33;;
71150;SDS011;59071;42.138;24.768;2024-01-16T13:31:31;2.95;;;1.52;;
71150;SDS011;59071;42.138;24.768;2024-01-16T13:33:57;2.53;;;1.67;;
71150;SDS011;59071;42.138;24.768;2024-01-16T13:36:22;2.63;;;1.58;;
71150;SDS011;59071;42.138;24.768;2024-01-16T13:38:48;2.17;;;1.55;;
71150;SDS011;59071;42.138;24.768;2024-01-16T13:41:14;4.38;;;1.90;;
71150;SDS011;59071;42.138;24.768;2024-01-16T13:43:39;4.20;;;1.90;;
71150;SDS011;59071;42.138;24.768;2024-01-16T13:46:05;2.58;;;1.80;;
71150;SDS011;59071;42.138;24.768;2024-01-16T13:48:30;3.10;;;2.00;;
71150;SDS011;59071;42.138;24.768;2024-01-16T13:50:56;3.25;;;2.10;;
71150;SDS011;59071;42.138;24.768;2024-01-16T13:53:21;5.18;;;1.90;;
71150;SDS011;59071;42.138;24.768;2024-01-16T13:55:48;4.57;;;2.05;;
71150;SDS011;59071;42.138;24.768;2024-01-16T13:58:13;3.53;;;2.05;;
71150;SDS011;59071;42.138;24.768;2024-01-16T14:00:38;3.88;;;2.40;;
71150;SDS011;59071;42.138;24.768;2024-01-16T14:03:04;3.97;;;2.38;;
71150;SDS011;59071;42.138;24.768;2024-01-16T14:05:31;6.78;;;2.17;;
71150;SDS011;59071;42.138;24.768;2024-01-16T14:07:56;3.65;;;2.10;;
71150;SDS011;59071;42.138;24.768;2024-01-16T14:10:22;4.05;;;2.10;;
71150;SDS011;59071;42.138;24.768;2024-01-16T14:12:50;4.53;;;2.30;;
71150;SDS011;59071;42.138;24.768;2024-01-16T14:15:16;4.45;;;2.25;;
71150;SDS011;59071;42.138;24.768;2024-01-16T14:17:51;6.85;;;1.90;;
71150;SDS011;59071;42.138;24.768;2024-01-16T14:20:18;4.43;;;2.40;;
71150;SDS011;59071;42.138;24.768;2024-01-16T14:22:48;7.70;;;2.10;;
71150;SDS011;59071;42.138;24.768;2024-01-16T14:25:13;6.85;;;2.00;;
71150;SDS011;59071;42.138;24.768;2024-01-16T14:27:42;5.97;;;2.03;;
71150;SDS011;59071;42.138;24.768;2024-01-16T14:30:12;4.15;;;1.90;;
71150;SDS011;59071;42.138;24.768;2024-01-16T14:32:42;5.70;;;1.98;;
71150;SDS011;59071;42.138;24.768;2024-01-16T14:35:09;4.97;;;2.10;;
71150;SDS011;59071;42.138;24.768;2024-01-16T14:37:38;5.80;;;3.17;;
71150;SDS011;59071;42.138;24.768;2024-01-16T14:40:04;4.80;;;2.40;;
71150;SDS011;59071;42.138;24.768;2024-01-16T14:42:37;6.18;;;2.20;;